Terminal Aerodrome Forecast
Issued by NWS

Home | Current Version | Previous Version | Graphics & Text | Print | Product List | Glossary On
Versions: 1 2 3 4 5 6 7 8 9 10 11 12 13 14 15 16 17 18 19 20 21 22 23 24 25
000
FTUS43 KBIS 212300
TAFDIK
TAF
KDIK 212340Z 2200/2224 34009KT P6SM SCT060
     FM220400 03007KT 6SM SHRA BR VCTS OVC040CB
     FM221200 03007KT 3SM -SHRA BR VCTS SCT008 OVC015CB
     FM221600 05008KT 4SM SHRA BR VCTS OVC020CB=

USA.gov is the U.S. government's official web portal to all federal, state and local government web resources and services.